Terminal Aerodrome Forecast
Issued by NWS Grand Forks, ND

Home | Current Version | Previous Version | Graphics & Text | Print | Product List | Glossary On
Versions: 1 2 3 4 5 6 7 8 9 10 11 12 13 14 15 16 17 18 19 20 21 22
000
FTUS43 KFGF 070147 AAA
TAFGFK
TAF AMD
KGFK 070147Z 0702/0724 30028G35KT 1SM -SN BLSN OVC022
     FM071500 31021G30KT 1 1/2SM -SN BLSN OVC008
     FM072300 32021G29KT 1 1/2SM BLSN OVC015=

USA.gov is the U.S. government's official web portal to all federal, state and local government web resources and services.